createdAt,value
2023-01-17T02:08:12.036Z,20.30
2023-01-17T02:10:39.876Z,17.40
2023-01-17T02:13:06.858Z,18.30
2023-01-17T02:15:51.389Z,19.40
2023-01-17T02:18:24.196Z,20.20
2023-01-17T02:21:10.289Z,18.40
2023-01-17T02:24:02.309Z,17.90
2023-01-17T02:26:37.041Z,16.50
2023-01-17T02:29:43.836Z,15.70
2023-01-17T02:32:26.173Z,15.00
2023-01-17T02:35:20.503Z,14.50
2023-01-17T02:40:28.382Z,14.90
2023-01-17T02:43:02.693Z,14.20
2023-01-17T02:45:29.557Z,14.80
2023-01-17T02:47:56.324Z,14.50
2023-01-17T02:50:25.572Z,15.10
2023-01-17T02:53:24.168Z,14.10
2023-01-17T02:56:10.359Z,14.60
2023-01-17T02:58:52.483Z,13.10
2023-01-17T03:01:27.625Z,14.60
2023-01-17T03:04:04.703Z,15.20
2023-01-17T03:06:37.681Z,15.10
2023-01-17T03:09:04.513Z,14.50
2023-01-17T03:11:31.259Z,14.70
2023-01-17T03:13:58.135Z,14.50
2023-01-17T03:16:26.404Z,15.90
2023-01-17T03:18:54.036Z,14.70
2023-01-17T03:21:21.690Z,12.90
2023-01-17T03:23:48.546Z,14.30
2023-01-17T03:26:15.658Z,13.70
2023-01-17T03:28:42.526Z,14.50
2023-01-17T03:31:09.237Z,13.30
2023-01-17T03:33:35.851Z,15.40
2023-01-17T03:36:02.495Z,14.10
2023-01-17T03:38:29.342Z,13.50
2023-01-17T03:40:56.071Z,14.10
2023-01-17T03:43:22.984Z,14.30
2023-01-17T03:45:50.562Z,13.50
2023-01-17T03:48:18.545Z,14.30
2023-01-17T03:50:45.243Z,13.90
2023-01-17T03:53:11.895Z,14.50
2023-01-17T08:46:32.756Z,34.20
2023-01-17T08:49:00.457Z,37.70
2023-01-17T08:51:27.726Z,35.00
2023-01-17T08:53:55.267Z,31.90
2023-01-17T08:56:23.746Z,34.30
2023-01-17T08:58:50.505Z,32.00
2023-01-17T09:01:17.264Z,32.20
2023-01-17T09:03:45.640Z,28.30
2023-01-17T09:06:13.757Z,29.00
2023-01-17T09:08:40.641Z,28.70
2023-01-17T09:11:08.648Z,29.90
2023-01-17T09:13:35.776Z,27.60
2023-01-17T09:16:02.669Z,28.40
2023-01-17T09:18:30.254Z,26.80
2023-01-17T09:20:59.246Z,28.30
2023-01-17T09:23:27.053Z,29.40
2023-01-17T09:25:58.065Z,28.90
2023-01-17T09:28:25.819Z,28.50
2023-01-17T09:30:52.583Z,25.90
2023-01-17T09:33:19.716Z,28.50
2023-01-17T09:35:46.642Z,24.30
2023-01-17T09:38:13.414Z,31.00
2023-01-17T09:40:46.396Z,26.80
2023-01-17T09:43:33.605Z,29.40
2023-01-17T09:46:00.685Z,25.60
2023-01-17T09:48:32.915Z,25.70
2023-01-17T09:51:01.304Z,28.60
2023-01-17T09:53:28.035Z,26.80
2023-01-17T09:55:59.640Z,29.90
2023-01-17T09:58:34.989Z,27.20
2023-01-17T10:01:14.808Z,30.90
2023-01-17T10:03:57.177Z,27.60
2023-01-17T10:06:45.429Z,25.40
2023-01-17T10:09:22.015Z,27.50
2023-01-17T10:12:19.178Z,29.50
2023-01-17T10:14:45.801Z,30.00
2023-01-17T10:17:31.353Z,28.70
2023-01-17T10:20:13.428Z,27.60
2023-01-17T10:22:49.360Z,29.90
2023-01-17T10:26:04.141Z,29.10
2023-01-17T10:28:34.722Z,29.60
2023-01-17T10:31:10.450Z,30.10
2023-01-17T10:33:40.490Z,28.60
2023-01-17T10:36:20.789Z,28.30
2023-01-17T10:38:49.535Z,29.90
2023-01-17T10:41:24.514Z,27.50
2023-01-17T10:44:29.035Z,29.60
2023-01-17T10:47:01.765Z,28.30
2023-01-17T10:49:28.571Z,31.10
2023-01-17T10:52:13.731Z,30.50
2023-01-17T10:54:43.363Z,29.30
2023-01-17T10:57:24.044Z,30.60
2023-01-17T10:59:51.522Z,27.80
2023-01-17T11:02:29.342Z,28.70
2023-01-17T11:04:56.500Z,30.10
2023-01-17T11:07:27.397Z,29.10
2023-01-17T11:09:55.832Z,28.80
2023-01-17T11:12:45.205Z,26.70
2023-01-17T11:15:11.889Z,28.80
2023-01-17T11:17:43.037Z,29.40
2023-01-17T11:20:15.749Z,28.10
2023-01-17T11:22:45.941Z,27.90
2023-01-17T11:25:20.266Z,27.90
2023-01-17T11:27:57.501Z,29.40
2023-01-17T11:30:29.451Z,28.30
2023-01-17T11:32:59.656Z,28.10
2023-01-17T11:35:35.336Z,26.90
2023-01-17T11:38:01.978Z,28.20
2023-01-17T11:40:30.542Z,29.00
2023-01-17T11:43:18.870Z,28.50
2023-01-17T11:45:46.393Z,28.70
2023-01-17T11:48:15.261Z,26.00
2023-01-17T11:51:03.998Z,28.80
2023-01-17T17:56:55.833Z,39.50
2023-01-17T17:59:23.961Z,37.00
2023-01-17T18:01:50.861Z,34.90
2023-01-17T18:04:17.937Z,36.70
2023-01-17T18:06:44.645Z,32.70
2023-01-17T18:09:11.725Z,32.20
2023-01-17T18:11:39.527Z,30.30
2023-01-17T18:14:06.671Z,28.30
2023-01-17T18:16:39.244Z,29.40
2023-01-17T18:19:06.548Z,28.70
2023-01-17T18:21:37.056Z,28.40
2023-01-17T18:24:09.333Z,27.80
2023-01-17T18:26:57.228Z,26.40
2023-01-17T18:29:24.878Z,26.10
2023-01-17T18:31:52.037Z,29.80
2023-01-17T18:34:23.082Z,29.00
2023-01-17T18:36:50.379Z,28.60
2023-01-17T18:39:19.019Z,27.10
2023-01-17T18:41:45.878Z,25.50
2023-01-17T18:44:12.583Z,25.20
2023-01-17T18:46:40.308Z,25.50
2023-01-17T18:49:07.087Z,26.10
2023-01-17T18:51:34.571Z,24.90
2023-01-17T18:54:05.392Z,29.50
2023-01-17T18:56:36.323Z,24.80
2023-01-17T18:59:06.309Z,24.80
2023-01-17T19:01:35.637Z,24.50
2023-01-17T19:04:03.835Z,26.60
2023-01-17T19:06:35.694Z,27.50
2023-01-17T19:09:02.782Z,23.90
2023-01-17T19:11:29.556Z,26.20
2023-01-17T19:13:56.376Z,25.40
2023-01-17T19:16:24.731Z,24.60
2023-01-17T19:18:52.307Z,25.00
2023-01-17T19:21:21.734Z,24.70
2023-01-17T19:23:48.874Z,24.40
2023-01-17T19:26:17.363Z,23.60
2023-01-17T19:28:44.962Z,25.00
2023-01-17T19:31:20.544Z,25.40
2023-01-17T19:33:47.899Z,26.00
2023-01-17T19:36:18.978Z,25.00
2023-01-17T19:38:58.737Z,23.10
